Time;durP1;ratioP1;P1;durP2;ratioP2;P2;SDS_P1;SDS_P2;PMS_P1;PMS_P2;Temp;Humidity;BMP_temperature;BMP_pressure;BME280_temperature;BME280_humidity;BME280_pressure;Samples;Min_cycle;Max_cycle;Signal;HPM_P1;HPM_P2
2022/12/18 00:01:57;;;;;;;;;;;-5.60;99.90;;;;;;5069241;28;20014;-76
2022/12/18 00:04:24;;;;;;;;;;;-5.60;99.90;;;;;;5068039;28;19928;-77
2022/12/18 00:06:52;;;;;;;;;;;-5.70;99.90;;;;;;5069558;28;19928;-76
2022/12/18 00:09:19;;;;;;;;;;;-5.70;99.90;;;;;;5069656;28;19933;-74
2022/12/18 00:11:46;;;;;;;;;;;-5.70;99.90;;;;;;5066387;28;21976;-74
2022/12/18 00:14:13;;;;;;;;;;;-5.80;99.90;;;;;;5069755;28;19928;-77
2022/12/18 00:16:40;;;;;;;;;;;-5.80;99.90;;;;;;5067813;28;19938;-74
2022/12/18 00:19:07;;;;;;;;;;;-5.80;99.90;;;;;;5068739;28;19939;-74
2022/12/18 00:21:35;;;;;;;;;;;-5.90;99.90;;;;;;5069517;28;19940;-74
2022/12/18 00:24:03;;;;;;;;;;;-5.90;99.90;;;;;;5069117;28;19932;-74
2022/12/18 00:26:30;;;;;;;;;;;-5.90;99.90;;;;;;5068931;28;19932;-74
2022/12/18 00:28:59;;;;;;;;;;;-5.90;99.90;;;;;;5077120;28;20482;-74
2022/12/18 00:31:26;;;;;;;;;;;-5.90;99.90;;;;;;5070864;28;19933;-74
2022/12/18 00:33:54;;;;;;;;;;;-6.00;99.90;;;;;;5070409;28;19998;-74
2022/12/18 00:36:22;;;;;;;;;;;-6.00;99.90;;;;;;5071408;28;19927;-74
2022/12/18 00:38:48;;;;;;;;;;;-6.00;99.90;;;;;;5069372;28;19928;-73
2022/12/18 00:42:55;;;;;;;;;;;-6.00;99.90;;;;;;5068684;28;19934;-74
2022/12/18 00:44:03;;;;;;;;;;;-6.00;99.90;;;;;;5069560;28;19932;-74
2022/12/18 00:46:30;;;;;;;;;;;-6.00;99.90;;;;;;5069002;28;20051;-73
2022/12/18 00:48:57;;;;;;;;;;;-6.00;99.90;;;;;;5069137;28;19924;-73
2022/12/18 00:51:23;;;;;;;;;;;-6.00;99.90;;;;;;5068055;28;19936;-73
2022/12/18 00:53:50;;;;;;;;;;;-6.10;99.90;;;;;;5069422;28;20273;-72
2022/12/18 00:56:18;;;;;;;;;;;-6.10;99.90;;;;;;5067102;28;19998;-72
2022/12/18 00:58:45;;;;;;;;;;;-6.20;99.90;;;;;;5067160;28;19929;-73
2022/12/18 01:01:11;;;;;;;;;;;-6.10;99.90;;;;;;5067061;28;19925;-72
2022/12/18 01:03:38;;;;;;;;;;;-6.20;99.90;;;;;;5067296;28;20525;-74
2022/12/18 01:06:06;;;;;;;;;;;-6.20;99.90;;;;;;5068050;28;20337;-73
2022/12/18 01:08:33;;;;;;;;;;;-6.20;99.90;;;;;;5066948;28;19928;-74
2022/12/18 01:10:59;;;;;;;;;;;-6.20;99.90;;;;;;5067519;28;19929;-73
2022/12/18 01:13:27;;;;;;;;;;;-6.20;99.90;;;;;;5066568;28;20402;-73
2022/12/18 01:15:54;;;;;;;;;;;-6.20;99.90;;;;;;5069336;28;20326;-72
2022/12/18 01:18:21;;;;;;;;;;;-6.20;99.90;;;;;;5068075;28;20214;-73
2022/12/18 01:20:47;;;;;;;;;;;-6.20;99.90;;;;;;5068531;28;19932;-73
2022/12/18 01:23:14;;;;;;;;;;;-6.20;99.90;;;;;;5068763;28;19936;-73
2022/12/18 01:25:41;;;;;;;;;;;-6.20;99.90;;;;;;5067904;28;19935;-73
2022/12/18 01:28:07;;;;;;;;;;;-6.20;99.90;;;;;;5068522;28;20015;-72
2022/12/18 01:30:35;;;;;;;;;;;-6.30;99.90;;;;;;5067607;28;20027;-73
2022/12/18 01:33:02;;;;;;;;;;;-6.20;99.90;;;;;;5067876;28;19938;-74
2022/12/18 01:35:29;;;;;;;;;;;-6.20;99.90;;;;;;5066149;28;20027;-75
2022/12/18 01:37:56;;;;;;;;;;;-6.30;99.90;;;;;;5067501;28;19928;-73
2022/12/18 01:40:23;;;;;;;;;;;-6.30;99.90;;;;;;5065828;28;20018;-73
2022/12/18 01:42:51;;;;;;;;;;;-6.30;99.90;;;;;;5067092;28;20043;-74
2022/12/18 01:45:25;;;;;;;;;;;-6.30;99.90;;;;;;5065688;28;19925;-74
2022/12/18 01:47:54;;;;;;;;;;;-6.30;99.90;;;;;;5066348;28;20456;-75
2022/12/18 01:50:22;;;;;;;;;;;-6.30;99.90;;;;;;5067286;28;19939;-75
2022/12/18 01:52:50;;;;;;;;;;;-6.40;99.90;;;;;;5072746;28;19960;-74
2022/12/18 01:55:18;;;;;;;;;;;-6.40;99.90;;;;;;5066284;28;19928;-75
2022/12/18 01:57:46;;;;;;;;;;;-6.40;99.90;;;;;;5067772;28;19971;-75
2022/12/18 02:00:14;;;;;;;;;;;-6.50;99.90;;;;;;5067147;28;19985;-76
2022/12/18 02:02:41;;;;;;;;;;;-6.40;99.90;;;;;;5065577;28;19958;-76
2022/12/18 02:05:10;;;;;;;;;;;-6.40;99.90;;;;;;5067297;28;19932;-76
2022/12/18 02:07:41;;;;;;;;;;;-6.50;99.90;;;;;;5067185;28;19928;-75
2022/12/18 02:10:16;;;;;;;;;;;-6.50;99.90;;;;;;5066141;28;20078;-74
2022/12/18 02:12:44;;;;;;;;;;;-6.50;99.90;;;;;;5064887;28;19932;-73
2022/12/18 02:15:13;;;;;;;;;;;-6.50;99.90;;;;;;5067433;28;19931;-73
2022/12/18 02:17:44;;;;;;;;;;;-6.60;99.90;;;;;;5066346;28;19976;-73
2022/12/18 02:20:17;;;;;;;;;;;-6.50;99.90;;;;;;5066190;28;19932;-73
2022/12/18 02:22:50;;;;;;;;;;;-6.60;99.90;;;;;;5066084;28;19932;-73
2022/12/18 02:25:26;;;;;;;;;;;-6.50;99.90;;;;;;5066452;28;19935;-73
2022/12/18 02:27:56;;;;;;;;;;;-6.60;99.90;;;;;;5067872;28;19940;-72
2022/12/18 02:30:23;;;;;;;;;;;-6.60;99.90;;;;;;5065055;28;20394;-73
2022/12/18 02:32:52;;;;;;;;;;;-6.60;99.90;;;;;;5068029;28;19924;-75
2022/12/18 02:35:21;;;;;;;;;;;-6.70;99.90;;;;;;5065754;28;20451;-75
2022/12/18 02:37:48;;;;;;;;;;;-6.70;99.90;;;;;;5065899;28;20350;-75
2022/12/18 02:40:16;;;;;;;;;;;-6.70;99.90;;;;;;5063670;28;23286;-74
2022/12/18 02:42:43;;;;;;;;;;;-6.70;99.90;;;;;;5066465;28;19975;-75
2022/12/18 02:45:11;;;;;;;;;;;-6.70;99.90;;;;;;5066845;28;20027;-74
2022/12/18 02:47:40;;;;;;;;;;;-6.60;99.90;;;;;;5067353;28;19932;-75
2022/12/18 02:50:09;;;;;;;;;;;-6.60;99.90;;;;;;5069831;28;19932;-76
2022/12/18 02:52:40;;;;;;;;;;;-6.70;99.90;;;;;;5069095;28;20013;-75
2022/12/18 02:55:11;;;;;;;;;;;-6.70;99.90;;;;;;5064935;28;19932;-75
2022/12/18 02:57:43;;;;;;;;;;;-6.70;99.90;;;;;;5064323;28;20248;-75
2022/12/18 03:00:12;;;;;;;;;;;-6.80;99.90;;;;;;5064741;28;19928;-75
2022/12/18 03:02:44;;;;;;;;;;;-6.70;99.90;;;;;;5062973;28;20379;-75
2022/12/18 03:05:14;;;;;;;;;;;-6.70;99.90;;;;;;5061527;28;19935;-74
2022/12/18 03:07:43;;;;;;;;;;;-6.70;99.90;;;;;;5061881;28;20606;-76
2022/12/18 03:10:12;;;;;;;;;;;-6.70;99.90;;;;;;5063218;28;19933;-76
2022/12/18 03:12:40;;;;;;;;;;;-6.80;99.90;;;;;;5063155;28;19986;-76
2022/12/18 03:15:10;;;;;;;;;;;-6.70;99.90;;;;;;5065677;28;19933;-74
2022/12/18 03:17:37;;;;;;;;;;;-6.70;99.90;;;;;;5060983;28;19947;-76
2022/12/18 03:20:08;;;;;;;;;;;-6.80;99.90;;;;;;5063316;28;20326;-76
2022/12/18 03:22:35;;;;;;;;;;;-6.80;99.90;;;;;;5064052;28;19932;-75
2022/12/18 03:25:03;;;;;;;;;;;-6.80;99.90;;;;;;5063809;28;19928;-75
2022/12/18 03:27:31;;;;;;;;;;;-6.80;99.90;;;;;;5062556;28;19939;-75
2022/12/18 03:30:06;;;;;;;;;;;-6.80;99.90;;;;;;5065694;28;19928;-75
2022/12/18 03:32:37;;;;;;;;;;;-6.80;99.90;;;;;;5062039;28;20082;-75
2022/12/18 03:35:05;;;;;;;;;;;-6.90;99.90;;;;;;5062602;28;20578;-75
2022/12/18 03:37:33;;;;;;;;;;;-6.90;99.90;;;;;;5063537;28;19933;-75
2022/12/18 03:40:00;;;;;;;;;;;-6.90;99.90;;;;;;5062464;28;20298;-75
2022/12/18 03:42:29;;;;;;;;;;;-6.90;99.90;;;;;;5062215;28;19935;-76
2022/12/18 03:45:02;;;;;;;;;;;-6.90;99.90;;;;;;5062842;28;19932;-76
2022/12/18 03:47:31;;;;;;;;;;;-7.00;99.90;;;;;;5061662;28;19960;-76
2022/12/18 03:50:00;;;;;;;;;;;-7.00;99.90;;;;;;5063085;28;19928;-76
2022/12/18 03:52:28;;;;;;;;;;;-7.00;99.90;;;;;;5064495;28;19932;-75
2022/12/18 03:54:58;;;;;;;;;;;-7.00;99.90;;;;;;5065787;28;19939;-74
2022/12/18 03:57:26;;;;;;;;;;;-7.00;99.90;;;;;;5062585;28;19932;-74
2022/12/18 03:59:55;;;;;;;;;;;-7.00;99.90;;;;;;5065063;28;19950;-74
2022/12/18 04:02:23;;;;;;;;;;;-7.00;99.90;;;;;;5060308;28;19968;-75
2022/12/18 04:04:51;;;;;;;;;;;-7.00;99.90;;;;;;5063374;28;20647;-72
2022/12/18 04:07:18;;;;;;;;;;;-7.00;99.90;;;;;;5063955;28;19940;-72
2022/12/18 04:09:46;;;;;;;;;;;-7.00;99.90;;;;;;5068358;28;20066;-72
2022/12/18 04:12:14;;;;;;;;;;;-6.90;99.90;;;;;;5066297;28;19928;-72
2022/12/18 04:14:41;;;;;;;;;;;-6.90;99.90;;;;;;5065662;28;19981;-73
2022/12/18 04:17:07;;;;;;;;;;;-7.00;99.90;;;;;;5066650;28;19935;-73
2022/12/18 04:19:34;;;;;;;;;;;-7.00;99.90;;;;;;5066043;28;19938;-71
2022/12/18 04:22:01;;;;;;;;;;;-6.90;99.90;;;;;;5067084;28;19932;-72
2022/12/18 04:24:27;;;;;;;;;;;-7.00;99.90;;;;;;5066349;28;19928;-72
2022/12/18 04:26:54;;;;;;;;;;;-6.90;99.90;;;;;;5065416;28;19933;-72
2022/12/18 04:29:22;;;;;;;;;;;-7.00;99.90;;;;;;5067047;28;20407;-72
2022/12/18 04:31:49;;;;;;;;;;;-7.00;99.90;;;;;;5065498;28;19939;-71
2022/12/18 04:34:16;;;;;;;;;;;-7.00;99.90;;;;;;5065490;28;19928;-72
2022/12/18 04:36:42;;;;;;;;;;;-7.00;99.90;;;;;;5066531;28;20410;-71
2022/12/18 04:39:09;;;;;;;;;;;-7.00;99.90;;;;;;5069058;28;19932;-71
2022/12/18 04:41:36;;;;;;;;;;;-7.00;99.90;;;;;;5065298;28;20007;-72
2022/12/18 04:44:02;;;;;;;;;;;-7.00;99.90;;;;;;5066133;28;20394;-73
2022/12/18 04:46:30;;;;;;;;;;;-7.10;99.90;;;;;;5065244;28;19979;-72
2022/12/18 04:48:57;;;;;;;;;;;-7.10;99.90;;;;;;5064695;28;19928;-71
2022/12/18 04:51:24;;;;;;;;;;;-7.20;99.90;;;;;;5066129;28;19932;-72
2022/12/18 04:53:50;;;;;;;;;;;-7.30;99.90;;;;;;5066863;28;19927;-72
2022/12/18 04:56:17;;;;;;;;;;;-7.30;99.90;;;;;;5067669;28;19928;-72
2022/12/18 04:58:45;;;;;;;;;;;-7.30;99.90;;;;;;5068695;28;20403;-71
2022/12/18 05:01:12;;;;;;;;;;;-7.40;99.90;;;;;;5069052;28;20417;-72
2022/12/18 05:03:40;;;;;;;;;;;-7.50;99.90;;;;;;5070034;28;19951;-71
2022/12/18 05:06:07;;;;;;;;;;;-7.60;99.90;;;;;;5067378;28;19929;-71
2022/12/18 05:08:34;;;;;;;;;;;-7.60;99.90;;;;;;5069623;28;19964;-71
2022/12/18 05:11:01;;;;;;;;;;;-7.60;99.90;;;;;;5067379;28;19932;-71
2022/12/18 05:13:28;;;;;;;;;;;-7.60;99.90;;;;;;5070156;28;19932;-70
2022/12/18 05:15:55;;;;;;;;;;;-7.60;99.90;;;;;;5065700;28;20263;-71
2022/12/18 05:18:21;;;;;;;;;;;-7.50;99.90;;;;;;5067869;28;19938;-71
2022/12/18 05:20:49;;;;;;;;;;;-7.40;99.90;;;;;;5066722;28;19939;-71
2022/12/18 05:23:16;;;;;;;;;;;-7.50;99.90;;;;;;5068297;28;20528;-72
2022/12/18 05:25:43;;;;;;;;;;;-7.60;99.90;;;;;;5068686;28;19929;-71
2022/12/18 05:28:10;;;;;;;;;;;-7.60;99.90;;;;;;5066436;28;19934;-71
2022/12/18 05:30:36;;;;;;;;;;;-7.50;99.90;;;;;;5068780;28;19935;-71
2022/12/18 05:33:03;;;;;;;;;;;-7.60;99.90;;;;;;5067082;28;19924;-70
2022/12/18 05:35:30;;;;;;;;;;;-7.50;99.90;;;;;;5066287;28;22183;-71
2022/12/18 05:37:58;;;;;;;;;;;-7.50;99.90;;;;;;5068242;28;19924;-71
2022/12/18 05:40:24;;;;;;;;;;;-7.50;99.90;;;;;;5068137;28;19932;-72
2022/12/18 05:42:51;;;;;;;;;;;-7.40;99.90;;;;;;5067326;28;19932;-72
2022/12/18 05:45:18;;;;;;;;;;;-7.40;99.90;;;;;;5068147;28;20010;-71
2022/12/18 05:47:45;;;;;;;;;;;-7.40;99.90;;;;;;5066194;28;19932;-72
2022/12/18 05:50:11;;;;;;;;;;;-7.40;99.90;;;;;;5067455;28;20005;-72
2022/12/18 05:52:38;;;;;;;;;;;-7.40;99.90;;;;;;5064764;28;19928;-71
2022/12/18 05:55:06;;;;;;;;;;;-7.40;99.90;;;;;;5065908;28;19932;-71
2022/12/18 05:57:33;;;;;;;;;;;-7.30;99.90;;;;;;5065934;28;19952;-72
2022/12/18 06:00:00;;;;;;;;;;;-7.40;99.90;;;;;;5066867;28;19936;-72
2022/12/18 06:02:26;;;;;;;;;;;-7.40;99.90;;;;;;5068043;28;19950;-72
2022/12/18 06:04:53;;;;;;;;;;;-7.40;99.90;;;;;;5068018;28;19935;-72
2022/12/18 06:07:20;;;;;;;;;;;-7.40;99.90;;;;;;5066350;28;19939;-72
2022/12/18 06:09:46;;;;;;;;;;;-7.40;99.90;;;;;;5066828;28;19946;-72
2022/12/18 06:12:14;;;;;;;;;;;-7.40;99.90;;;;;;5067807;28;19928;-72
2022/12/18 06:14:41;;;;;;;;;;;-7.50;99.90;;;;;;5069807;28;20402;-72
2022/12/18 06:17:08;;;;;;;;;;;-7.50;99.90;;;;;;5094705;28;20003;-71
2022/12/18 06:19:34;;;;;;;;;;;-7.50;99.90;;;;;;5104167;28;19924;-71
2022/12/18 06:22:01;;;;;;;;;;;-7.60;99.90;;;;;;5108128;28;19930;-72
2022/12/18 06:24:28;;;;;;;;;;;-7.60;99.90;;;;;;5083994;28;19930;-71
2022/12/18 06:26:54;;;;;;;;;;;-7.60;99.90;;;;;;5088584;28;20026;-71
2022/12/18 06:29:23;;;;;;;;;;;-7.60;99.90;;;;;;5097301;28;20415;-72
2022/12/18 06:31:49;;;;;;;;;;;-7.60;99.90;;;;;;5063579;28;20034;-72
2022/12/18 06:34:16;;;;;;;;;;;-7.60;99.90;;;;;;5062956;28;19933;-72
2022/12/18 06:36:43;;;;;;;;;;;-7.60;99.90;;;;;;5062300;28;20730;-72
2022/12/18 06:39:09;;;;;;;;;;;-7.50;99.90;;;;;;5064388;28;20419;-71
2022/12/18 06:41:36;;;;;;;;;;;-7.50;99.90;;;;;;5097108;28;20382;-71
2022/12/18 06:44:03;;;;;;;;;;;-7.50;99.90;;;;;;5098372;28;20007;-71
2022/12/18 06:46:32;;;;;;;;;;;-7.60;99.90;;;;;;5088642;28;19946;-71
2022/12/18 06:48:58;;;;;;;;;;;-7.60;99.90;;;;;;5073359;28;20285;-71
2022/12/18 06:51:25;;;;;;;;;;;-7.60;99.90;;;;;;5094571;28;20021;-72
2022/12/18 06:53:52;;;;;;;;;;;-7.60;99.90;;;;;;5096036;28;20018;-71
2022/12/18 06:56:20;;;;;;;;;;;-7.60;99.90;;;;;;5078997;28;20067;-72
2022/12/18 06:58:47;;;;;;;;;;;-7.70;99.90;;;;;;5061627;28;19928;-72
2022/12/18 07:01:14;;;;;;;;;;;-7.70;99.90;;;;;;5062122;28;19924;-72
2022/12/18 07:03:42;;;;;;;;;;;-7.60;99.90;;;;;;5063003;28;19924;-72
2022/12/18 07:06:13;;;;;;;;;;;-7.60;99.90;;;;;;5062029;28;20316;-72
2022/12/18 07:08:40;;;;;;;;;;;-7.50;99.90;;;;;;5064834;28;19929;-74
2022/12/18 07:11:07;;;;;;;;;;;-7.50;99.90;;;;;;5061757;28;20282;-71
2022/12/18 07:13:33;;;;;;;;;;;-7.40;99.90;;;;;;5064311;28;19929;-71
2022/12/18 07:16:04;;;;;;;;;;;-7.40;99.90;;;;;;5064531;28;19944;-72
2022/12/18 07:18:31;;;;;;;;;;;-7.40;99.90;;;;;;5064333;28;19939;-71
2022/12/18 07:20:59;;;;;;;;;;;-7.40;99.90;;;;;;5062679;28;19938;-72
2022/12/18 07:23:25;;;;;;;;;;;-7.30;99.90;;;;;;5063905;28;20421;-72
2022/12/18 07:25:52;;;;;;;;;;;-7.30;99.90;;;;;;5062036;28;19932;-72
2022/12/18 07:28:19;;;;;;;;;;;-7.30;99.90;;;;;;5064262;28;19925;-72
2022/12/18 07:30:45;;;;;;;;;;;-7.30;99.90;;;;;;5063226;28;19932;-72
2022/12/18 07:33:12;;;;;;;;;;;-7.30;99.90;;;;;;5065542;28;20003;-72
2022/12/18 07:35:39;;;;;;;;;;;-7.30;99.90;;;;;;5062405;28;19932;-72
2022/12/18 07:38:07;;;;;;;;;;;-7.30;99.90;;;;;;5064672;28;19924;-72
2022/12/18 07:40:33;;;;;;;;;;;-7.30;99.90;;;;;;5060640;28;20513;-72
2022/12/18 07:43:00;;;;;;;;;;;-7.30;99.90;;;;;;5066631;28;20443;-73
2022/12/18 07:45:27;;;;;;;;;;;-7.20;99.90;;;;;;5067624;28;19975;-72
2022/12/18 07:47:54;;;;;;;;;;;-7.20;99.90;;;;;;5067891;28;19934;-72
2022/12/18 07:50:20;;;;;;;;;;;-7.20;99.90;;;;;;5067015;28;20464;-72
2022/12/18 07:52:47;;;;;;;;;;;-7.20;99.90;;;;;;5067794;28;20013;-73
2022/12/18 07:55:15;;;;;;;;;;;-7.20;99.90;;;;;;5066116;28;19940;-73
2022/12/18 07:57:42;;;;;;;;;;;-7.10;99.90;;;;;;5067019;28;19986;-71
2022/12/18 08:00:09;;;;;;;;;;;-7.10;99.90;;;;;;5067342;28;20047;-72
2022/12/18 08:02:36;;;;;;;;;;;-7.10;99.90;;;;;;5066252;28;19933;-72
2022/12/18 08:05:03;;;;;;;;;;;-7.10;99.90;;;;;;5065131;28;19928;-72
2022/12/18 08:07:29;;;;;;;;;;;-7.10;99.90;;;;;;5067041;28;20400;-72
2022/12/18 08:09:56;;;;;;;;;;;-7.10;99.90;;;;;;5067800;28;20446;-72
2022/12/18 08:12:24;;;;;;;;;;;-7.00;99.90;;;;;;5070803;28;19932;-72
2022/12/18 08:14:51;;;;;;;;;;;-7.00;99.90;;;;;;5068828;28;20594;-73
2022/12/18 08:17:18;;;;;;;;;;;-6.90;99.90;;;;;;5069355;28;19932;-74
2022/12/18 08:19:44;;;;;;;;;;;-6.90;99.90;;;;;;5070026;28;20306;-73
2022/12/18 08:22:11;;;;;;;;;;;-6.80;99.90;;;;;;5065393;28;20387;-75
2022/12/18 08:24:38;;;;;;;;;;;-6.80;99.90;;;;;;5070099;28;19936;-73
2022/12/18 08:27:04;;;;;;;;;;;-6.70;99.90;;;;;;5067815;28;20031;-73
2022/12/18 08:29:33;;;;;;;;;;;-6.60;99.90;;;;;;5067998;28;19963;-71
2022/12/18 08:32:00;;;;;;;;;;;-6.50;99.90;;;;;;5067788;28;19932;-71
2022/12/18 08:34:26;;;;;;;;;;;-6.40;99.90;;;;;;5068533;28;19938;-71
2022/12/18 08:36:53;;;;;;;;;;;-6.20;99.90;;;;;;5068655;28;20019;-71
2022/12/18 08:39:20;;;;;;;;;;;-6.10;99.90;;;;;;5068857;28;19932;-71
2022/12/18 08:44:37;;;;;;;;;;;-6.20;99.90;;;;;;5067258;28;19932;-73
2022/12/18 08:44:37;;;;;;;;;;;-6.20;99.90;;;;;;5068048;28;19928;-74
2022/12/18 08:47:04;;;;;;;;;;;-6.20;99.90;;;;;;5070337;28;19942;-74
2022/12/18 08:49:31;;;;;;;;;;;-6.10;99.90;;;;;;5068769;28;20002;-71
2022/12/18 08:51:58;;;;;;;;;;;-6.00;99.90;;;;;;5064881;28;20749;-73
2022/12/18 08:54:25;;;;;;;;;;;-5.80;99.90;;;;;;5069035;28;19939;-71
2022/12/18 08:56:51;;;;;;;;;;;-5.80;99.90;;;;;;5067823;28;19933;-74
2022/12/18 08:59:18;;;;;;;;;;;-5.70;99.90;;;;;;5068016;28;19977;-75
2022/12/18 09:01:47;;;;;;;;;;;-5.80;99.90;;;;;;5067302;28;20025;-73
2022/12/18 09:04:16;;;;;;;;;;;-5.70;99.90;;;;;;5067502;28;19939;-73
2022/12/18 09:06:43;;;;;;;;;;;-5.60;99.90;;;;;;5067701;28;19968;-73
2022/12/18 09:09:10;;;;;;;;;;;-5.50;99.90;;;;;;5069453;28;20407;-75
2022/12/18 09:11:37;;;;;;;;;;;-5.40;99.90;;;;;;5067182;28;20035;-73
2022/12/18 09:14:04;;;;;;;;;;;-5.20;99.90;;;;;;5071270;28;19955;-74
2022/12/18 09:16:31;;;;;;;;;;;-5.20;99.90;;;;;;5065525;28;19964;-75
2022/12/18 09:19:00;;;;;;;;;;;-5.20;99.90;;;;;;5070224;28;20146;-74
2022/12/18 09:21:27;;;;;;;;;;;-5.20;99.90;;;;;;5068479;28;19940;-74
2022/12/18 09:23:55;;;;;;;;;;;-5.10;99.90;;;;;;5067012;28;20019;-73
2022/12/18 09:26:21;;;;;;;;;;;-5.10;99.90;;;;;;5069052;28;20396;-74
2022/12/18 09:28:48;;;;;;;;;;;-5.10;99.90;;;;;;5068407;28;20251;-72
2022/12/18 09:31:15;;;;;;;;;;;-5.20;99.90;;;;;;5067718;28;19928;-74
2022/12/18 09:33:42;;;;;;;;;;;-5.10;99.90;;;;;;5068894;28;20019;-73
2022/12/18 09:36:12;;;;;;;;;;;-5.10;99.90;;;;;;5067748;28;20018;-73
2022/12/18 09:38:38;;;;;;;;;;;-5.00;99.90;;;;;;5067626;28;19939;-73
2022/12/18 09:41:06;;;;;;;;;;;-5.00;99.90;;;;;;5058207;28;19929;-72
2022/12/18 09:43:36;;;;;;;;;;;-4.90;99.90;;;;;;5064692;28;20395;-72
2022/12/18 09:46:06;;;;;;;;;;;-4.90;99.90;;;;;;5062751;28;19989;-74
2022/12/18 09:48:35;;;;;;;;;;;-4.90;99.90;;;;;;5064328;28;19948;-73
2022/12/18 09:51:03;;;;;;;;;;;-4.80;99.90;;;;;;5063392;28;19950;-74
2022/12/18 09:53:32;;;;;;;;;;;-4.70;99.90;;;;;;5063290;28;19932;-73
2022/12/18 09:55:59;;;;;;;;;;;-4.50;99.90;;;;;;5063888;28;20026;-74
2022/12/18 09:58:29;;;;;;;;;;;-4.40;99.90;;;;;;5061241;28;23014;-73
2022/12/18 10:00:56;;;;;;;;;;;-4.40;99.90;;;;;;5060319;28;19977;-74
2022/12/18 10:03:25;;;;;;;;;;;-4.30;99.90;;;;;;5064440;28;19928;-74
2022/12/18 10:05:57;;;;;;;;;;;-4.20;99.90;;;;;;5065262;28;19929;-75
2022/12/18 10:08:26;;;;;;;;;;;-4.20;99.90;;;;;;5063881;28;20011;-73
2022/12/18 10:10:56;;;;;;;;;;;-4.10;99.90;;;;;;5063566;28;20034;-73
2022/12/18 10:13:27;;;;;;;;;;;-4.00;99.90;;;;;;5060874;28;19940;-74
2022/12/18 10:16:02;;;;;;;;;;;-3.90;99.90;;;;;;5061793;28;19963;-73
2022/12/18 10:18:34;;;;;;;;;;;-3.90;99.90;;;;;;5064374;28;20036;-73
2022/12/18 10:21:04;;;;;;;;;;;-3.80;99.90;;;;;;5066457;28;19978;-72
2022/12/18 10:23:34;;;;;;;;;;;-3.70;99.90;;;;;;5066384;28;19932;-72
2022/12/18 10:26:04;;;;;;;;;;;-3.60;99.90;;;;;;5063580;28;19933;-73
2022/12/18 10:28:31;;;;;;;;;;;-3.60;99.90;;;;;;5068459;28;19986;-72
2022/12/18 10:30:59;;;;;;;;;;;-3.60;99.90;;;;;;5065147;28;19943;-73
2022/12/18 10:33:28;;;;;;;;;;;-3.50;99.90;;;;;;5063204;28;19928;-72
2022/12/18 10:35:55;;;;;;;;;;;-3.40;99.90;;;;;;5063871;28;19932;-72
2022/12/18 10:38:24;;;;;;;;;;;-3.30;99.90;;;;;;5066229;28;19979;-71
2022/12/18 10:40:52;;;;;;;;;;;-3.30;99.90;;;;;;5064962;28;19939;-71
2022/12/18 10:43:23;;;;;;;;;;;-3.30;99.90;;;;;;5067032;28;20350;-71
2022/12/18 10:46:05;;;;;;;;;;;-3.20;99.90;;;;;;5065903;28;20761;-70
2022/12/18 10:48:33;;;;;;;;;;;-3.20;99.90;;;;;;5064296;28;20053;-71
2022/12/18 10:51:03;;;;;;;;;;;-3.10;99.90;;;;;;5062579;28;19932;-72
2022/12/18 10:53:33;;;;;;;;;;;-3.00;99.90;;;;;;5063527;28;19936;-73
2022/12/18 10:56:00;;;;;;;;;;;-2.90;99.90;;;;;;5061780;28;19924;-75
2022/12/18 10:58:31;;;;;;;;;;;-2.80;99.90;;;;;;5064164;28;19932;-74
2022/12/18 11:01:06;;;;;;;;;;;-2.80;99.90;;;;;;5065496;28;20279;-73
2022/12/18 11:03:35;;;;;;;;;;;-2.80;99.90;;;;;;5065639;28;19971;-72
2022/12/18 11:06:05;;;;;;;;;;;-2.70;99.90;;;;;;5061579;28;19931;-73
2022/12/18 11:08:32;;;;;;;;;;;-2.70;99.90;;;;;;5062867;28;19936;-73
2022/12/18 11:10:59;;;;;;;;;;;-2.60;99.90;;;;;;5058584;28;19932;-72
2022/12/18 11:13:27;;;;;;;;;;;-2.70;99.90;;;;;;5064238;28;19990;-73
2022/12/18 11:15:56;;;;;;;;;;;-2.70;99.90;;;;;;5067363;28;20302;-73
2022/12/18 11:18:25;;;;;;;;;;;-2.70;99.90;;;;;;5067042;28;19978;-74
2022/12/18 11:20:54;;;;;;;;;;;-2.70;99.90;;;;;;5070212;28;19933;-72
2022/12/18 11:23:22;;;;;;;;;;;-2.60;99.90;;;;;;5071252;28;20031;-72
2022/12/18 11:25:52;;;;;;;;;;;-2.60;99.90;;;;;;5068764;28;20510;-75
2022/12/18 11:28:27;;;;;;;;;;;-2.50;99.90;;;;;;5070480;28;19939;-73
2022/12/18 11:31:10;;;;;;;;;;;-2.50;99.90;;;;;;5070891;28;19927;-75
2022/12/18 11:33:38;;;;;;;;;;;-2.40;99.90;;;;;;5068608;28;19928;-71
2022/12/18 11:36:08;;;;;;;;;;;-2.40;99.90;;;;;;5065364;28;20427;-73
2022/12/18 11:38:36;;;;;;;;;;;-2.40;99.90;;;;;;5069974;28;20780;-72
2022/12/18 11:41:05;;;;;;;;;;;-2.30;99.90;;;;;;5063645;28;20341;-73
2022/12/18 11:43:34;;;;;;;;;;;-2.20;99.90;;;;;;5062432;28;20402;-75
2022/12/18 11:46:04;;;;;;;;;;;-2.10;99.90;;;;;;5064249;28;19928;-74
2022/12/18 11:48:34;;;;;;;;;;;-2.10;99.90;;;;;;5063565;28;19981;-73
2022/12/18 11:51:04;;;;;;;;;;;-2.00;99.90;;;;;;5071036;28;19932;-74
2022/12/18 11:53:31;;;;;;;;;;;-2.10;99.90;;;;;;5071407;28;20373;-72
2022/12/18 11:56:07;;;;;;;;;;;-2.20;99.90;;;;;;5070038;28;19928;-73
2022/12/18 11:58:40;;;;;;;;;;;-2.30;99.90;;;;;;5068875;28;19932;-74
2022/12/18 12:01:14;;;;;;;;;;;-2.20;99.90;;;;;;5071962;28;20443;-73
2022/12/18 12:03:53;;;;;;;;;;;-2.20;99.90;;;;;;5069258;28;19978;-71
2022/12/18 12:06:22;;;;;;;;;;;-2.20;99.90;;;;;;5068132;28;20054;-73
2022/12/18 12:09:00;;;;;;;;;;;-2.00;99.90;;;;;;5074369;28;19933;-73
2022/12/18 12:11:33;;;;;;;;;;;-1.90;99.90;;;;;;5068538;28;19928;-74
2022/12/18 12:14:08;;;;;;;;;;;-1.90;99.90;;;;;;5075977;28;19932;-74
2022/12/18 12:16:38;;;;;;;;;;;-1.90;99.90;;;;;;5086893;28;19939;-73
2022/12/18 12:19:13;;;;;;;;;;;-1.90;99.90;;;;;;5068632;28;19943;-73
2022/12/18 12:21:40;;;;;;;;;;;-1.90;99.90;;;;;;5067762;28;19932;-73
2022/12/18 12:24:14;;;;;;;;;;;-1.90;99.90;;;;;;5067538;28;20620;-74
2022/12/18 12:26:46;;;;;;;;;;;-1.80;99.90;;;;;;5068119;28;20031;-73
2022/12/18 12:29:21;;;;;;;;;;;-1.80;99.90;;;;;;5068662;28;19928;-74
2022/12/18 12:31:56;;;;;;;;;;;-1.80;99.90;;;;;;5069686;28;19932;-73
2022/12/18 12:34:24;;;;;;;;;;;-1.80;99.90;;;;;;5070697;28;20387;-73
2022/12/18 12:37:00;;;;;;;;;;;-1.80;99.90;;;;;;5068143;28;19924;-74
2022/12/18 12:39:29;;;;;;;;;;;-1.70;99.90;;;;;;5068976;28;19980;-74
2022/12/18 12:44:42;;;;;;;;;;;-1.60;99.90;;;;;;5066542;28;19950;-75
2022/12/18 12:47:14;;;;;;;;;;;-1.60;99.90;;;;;;5060415;28;19925;-75
2022/12/18 12:49:47;;;;;;;;;;;-1.60;99.90;;;;;;5062326;28;19933;-73
2022/12/18 12:52:16;;;;;;;;;;;-1.50;99.90;;;;;;5066219;28;19932;-74
2022/12/18 12:54:44;;;;;;;;;;;-1.50;99.90;;;;;;5067265;28;19964;-72
2022/12/18 12:57:13;;;;;;;;;;;-1.40;99.90;;;;;;5068990;28;19977;-73
2022/12/18 12:59:45;;;;;;;;;;;-1.40;99.90;;;;;;5065784;28;19928;-74
2022/12/18 13:02:18;;;;;;;;;;;-1.30;99.90;;;;;;5068185;28;19932;-73
2022/12/18 13:04:48;;;;;;;;;;;-1.30;99.90;;;;;;5068739;28;20432;-74
2022/12/18 13:07:16;;;;;;;;;;;-1.20;99.90;;;;;;5068781;28;20012;-75
2022/12/18 13:09:58;;;;;;;;;;;-1.30;99.90;;;;;;5071579;28;19928;-74
2022/12/18 13:15:14;;;;;;;;;;;-1.20;99.90;;;;;;5068003;28;19931;-72
2022/12/18 13:17:42;;;;;;;;;;;-1.20;99.90;;;;;;5066359;28;20061;-72
2022/12/18 13:20:10;;;;;;;;;;;-1.20;99.90;;;;;;5070114;28;19940;-73
2022/12/18 13:22:38;;;;;;;;;;;-1.10;99.90;;;;;;5068796;28;19928;-74
2022/12/18 13:25:28;;;;;;;;;;;-1.10;99.90;;;;;;5072555;28;20731;-75
2022/12/18 13:28:06;;;;;;;;;;;-1.10;99.90;;;;;;5067927;28;20637;-74
2022/12/18 13:30:42;;;;;;;;;;;-1.10;99.90;;;;;;5068968;28;19934;-73
2022/12/18 13:33:28;;;;;;;;;;;-1.10;99.90;;;;;;5067881;28;19928;-74
2022/12/18 13:36:02;;;;;;;;;;;-1.10;99.90;;;;;;5066189;28;19954;-70
2022/12/18 13:38:34;;;;;;;;;;;-1.00;99.90;;;;;;5069495;28;19932;-72
2022/12/18 13:41:01;;;;;;;;;;;-0.90;99.90;;;;;;5069586;28;19972;-79
2022/12/18 13:43:33;;;;;;;;;;;-0.80;99.90;;;;;;5069853;28;19932;-73
2022/12/18 13:46:02;;;;;;;;;;;-0.70;99.90;;;;;;5068135;28;20041;-74
2022/12/18 13:48:30;;;;;;;;;;;-0.60;99.90;;;;;;5068049;28;19978;-74
2022/12/18 13:51:00;;;;;;;;;;;-0.50;99.90;;;;;;5068642;28;20002;-73
2022/12/18 13:53:31;;;;;;;;;;;-0.50;99.90;;;;;;5068291;28;20395;-74
2022/12/18 13:55:58;;;;;;;;;;;-0.50;99.90;;;;;;5066415;28;20011;-74
2022/12/18 13:58:24;;;;;;;;;;;-0.40;99.90;;;;;;5068847;28;20298;-74
2022/12/18 14:00:52;;;;;;;;;;;-0.30;99.90;;;;;;5065964;28;20022;-73
2022/12/18 14:03:20;;;;;;;;;;;-0.30;99.90;;;;;;5066457;28;20450;-71
2022/12/18 14:05:53;;;;;;;;;;;-0.20;99.90;;;;;;5066802;28;19936;-73
2022/12/18 14:08:21;;;;;;;;;;;-0.20;99.90;;;;;;5067731;28;20015;-71
2022/12/18 14:10:49;;;;;;;;;;;-0.20;99.90;;;;;;5063289;28;19977;-74
2022/12/18 14:13:20;;;;;;;;;;;-0.10;99.90;;;;;;5065058;28;19932;-72
2022/12/18 14:15:49;;;;;;;;;;;-0.10;99.90;;;;;;5060009;28;19938;-72
2022/12/18 14:18:20;;;;;;;;;;;0.00;99.90;;;;;;5065923;28;19932;-73
2022/12/18 14:20:47;;;;;;;;;;;0.00;99.90;;;;;;5065908;28;19924;-74
2022/12/18 14:23:32;;;;;;;;;;;0.10;99.90;;;;;;5065597;28;20490;-72
2022/12/18 14:25:59;;;;;;;;;;;0.10;99.90;;;;;;5063284;28;19964;-73
2022/12/18 14:28:29;;;;;;;;;;;0.10;99.90;;;;;;5067669;28;20005;-74
2022/12/18 14:30:56;;;;;;;;;;;0.30;99.90;;;;;;5064344;28;20059;-74